Time;durP1;ratioP1;P1;durP2;ratioP2;P2;SDS_P1;SDS_P2;PMS_P1;PMS_P2;Temp;Humidity;BMP_temperature;BMP_pressure;BME280_temperature;BME280_humidity;BME280_pressure;Samples;Min_cycle;Max_cycle;Signal;HPM_P1;HPM_P2
2021/10/06 00:01:20;;;;;;;3.93;1.57;;;12.20;99.90;;;;;;5036006;28;20240;-78
2021/10/06 00:03:45;;;;;;;4.40;1.50;;;12.20;99.90;;;;;;5019655;28;20536;-79
2021/10/06 00:06:11;;;;;;;6.03;1.53;;;12.10;99.90;;;;;;5019539;28;20207;-79
2021/10/06 00:08:37;;;;;;;6.03;1.70;;;12.10;99.90;;;;;;5019017;28;20646;-79
2021/10/06 00:11:02;;;;;;;4.47;1.80;;;12.20;99.90;;;;;;5018766;28;20476;-78
2021/10/06 00:13:28;;;;;;;4.00;1.70;;;12.10;99.90;;;;;;5035998;28;20186;-78
2021/10/06 00:15:53;;;;;;;4.47;1.80;;;12.10;99.90;;;;;;5035795;28;20645;-79
2021/10/06 00:18:19;;;;;;;5.10;1.90;;;12.10;99.90;;;;;;5035323;28;20182;-78
2021/10/06 00:20:45;;;;;;;4.43;1.90;;;12.00;99.90;;;;;;5035875;28;20213;-79
2021/10/06 00:23:10;;;;;;;2.70;1.70;;;12.10;99.90;;;;;;5035638;28;20182;-79
2021/10/06 00:25:36;;;;;;;4.37;2.13;;;12.00;99.90;;;;;;5019331;28;20209;-78
2021/10/06 00:28:01;;;;;;;5.70;1.90;;;12.00;99.90;;;;;;5019403;28;20237;-78
2021/10/06 00:30:27;;;;;;;6.00;1.90;;;12.10;99.90;;;;;;5018824;28;20181;-78
2021/10/06 00:32:53;;;;;;;5.30;2.30;;;12.10;99.90;;;;;;5019127;28;20178;-78
2021/10/06 00:35:18;;;;;;;6.93;2.03;;;12.10;99.90;;;;;;5019210;28;20210;-78
2021/10/06 00:37:44;;;;;;;5.37;2.10;;;12.20;99.90;;;;;;5034737;28;20185;-79
2021/10/06 00:40:10;;;;;;;4.07;1.90;;;12.10;99.90;;;;;;5035419;28;20183;-79
2021/10/06 00:42:36;;;;;;;4.70;2.23;;;12.20;99.90;;;;;;5019350;28;20256;-78
2021/10/06 00:45:02;;;;;;;5.83;1.90;;;12.20;99.90;;;;;;5034947;28;20682;-79
2021/10/06 00:47:28;;;;;;;6.83;2.10;;;12.20;99.90;;;;;;5035080;28;20646;-78
2021/10/06 00:49:54;;;;;;;6.33;2.00;;;12.20;99.90;;;;;;5034573;28;20232;-78
2021/10/06 00:52:19;;;;;;;5.97;2.00;;;12.20;99.90;;;;;;5018322;28;20222;-78
2021/10/06 00:54:45;;;;;;;5.93;2.00;;;12.10;99.90;;;;;;5034885;28;20568;-79
2021/10/06 00:57:11;;;;;;;4.30;1.87;;;12.10;99.90;;;;;;5021910;28;20175;-79
2021/10/06 00:59:37;;;;;;;6.70;2.10;;;12.00;99.90;;;;;;5019437;28;20178;-79
2021/10/06 01:02:03;;;;;;;5.73;2.10;;;12.00;99.90;;;;;;5018909;28;20230;-79
2021/10/06 01:04:28;;;;;;;6.90;2.30;;;12.00;99.90;;;;;;5018824;28;20171;-79
2021/10/06 01:06:54;;;;;;;5.70;2.40;;;12.00;99.90;;;;;;5019044;28;20724;-79
2021/10/06 01:09:20;;;;;;;6.33;2.20;;;12.00;99.90;;;;;;5018428;28;20210;-78
2021/10/06 01:11:46;;;;;;;6.13;2.20;;;12.00;99.90;;;;;;5034730;28;20197;-78
2021/10/06 01:14:11;;;;;;;4.93;2.10;;;12.00;99.90;;;;;;5035316;28;20166;-79
2021/10/06 01:16:37;;;;;;;7.23;2.53;;;12.00;99.90;;;;;;5017735;28;20178;-78
2021/10/06 01:19:02;;;;;;;7.53;2.43;;;12.00;99.90;;;;;;5018401;28;20182;-78
2021/10/06 01:21:28;;;;;;;6.23;2.50;;;12.00;99.90;;;;;;5018405;28;20198;-79
2021/10/06 01:23:57;;;;;;;6.27;2.40;;;12.00;99.90;;;;;;5033975;28;20198;-79
2021/10/06 01:26:22;;;;;;;6.63;2.53;;;11.90;99.90;;;;;;5018230;28;20213;-78
2021/10/06 01:28:49;;;;;;;7.60;2.40;;;11.90;99.90;;;;;;5034737;28;20166;-79
2021/10/06 01:31:15;;;;;;;5.23;2.47;;;11.90;99.90;;;;;;5019365;28;20195;-79
2021/10/06 01:33:40;;;;;;;6.27;2.13;;;11.90;99.90;;;;;;5034664;28;20236;-78
2021/10/06 01:36:06;;;;;;;5.97;2.40;;;12.00;99.90;;;;;;5034304;28;20680;-79
2021/10/06 01:38:31;;;;;;;6.60;1.93;;;11.90;99.90;;;;;;5034309;28;20656;-78
2021/10/06 01:40:57;;;;;;;5.80;1.70;;;12.00;99.90;;;;;;5018327;28;20245;-78
2021/10/06 01:43:23;;;;;;;6.30;2.23;;;11.90;99.90;;;;;;5035084;28;20186;-78
2021/10/06 01:45:48;;;;;;;4.57;1.80;;;11.90;99.90;;;;;;5018108;28;20208;-79
2021/10/06 01:48:14;;;;;;;7.27;2.10;;;11.90;99.90;;;;;;5017843;28;20205;-79
2021/10/06 01:50:41;;;;;;;4.50;1.53;;;11.80;99.90;;;;;;5017389;28;20672;-79
2021/10/06 01:53:08;;;;;;;4.63;1.87;;;11.90;99.90;;;;;;5034805;28;20649;-78
2021/10/06 01:55:33;;;;;;;6.03;1.57;;;11.90;99.90;;;;;;5034594;28;20377;-78
2021/10/06 01:58:01;;;;;;;5.20;2.00;;;11.90;99.90;;;;;;5017149;28;20292;-79
2021/10/06 02:00:27;;;;;;;5.13;1.50;;;11.80;99.90;;;;;;5017653;28;20183;-79
2021/10/06 02:02:52;;;;;;;3.43;1.60;;;11.80;99.90;;;;;;5034585;28;20185;-79
2021/10/06 02:05:18;;;;;;;5.43;1.70;;;11.70;99.90;;;;;;5018079;28;20211;-78
2021/10/06 02:07:44;;;;;;;5.00;1.73;;;11.70;99.90;;;;;;5017971;28;20225;-78
2021/10/06 02:10:09;;;;;;;5.63;1.53;;;11.60;99.90;;;;;;5034771;28;20225;-78
2021/10/06 02:12:35;;;;;;;3.93;1.60;;;11.60;99.90;;;;;;5034283;28;20217;-78
2021/10/06 02:15:01;;;;;;;3.57;1.63;;;11.60;99.90;;;;;;5034016;28;20466;-79
2021/10/06 02:17:26;;;;;;;5.60;1.60;;;11.50;99.90;;;;;;5018152;28;20208;-78
2021/10/06 02:19:52;;;;;;;5.27;2.00;;;11.50;99.90;;;;;;5017219;28;20660;-79
2021/10/06 02:22:17;;;;;;;4.53;1.63;;;11.50;99.90;;;;;;5017049;28;20206;-78
2021/10/06 02:24:43;;;;;;;3.43;1.60;;;11.50;99.90;;;;;;5017048;28;20179;-79
2021/10/06 02:27:09;;;;;;;5.23;1.60;;;11.50;99.90;;;;;;5017256;28;20323;-79
2021/10/06 02:29:34;;;;;;;5.50;1.70;;;11.60;99.90;;;;;;5016478;28;20199;-79
2021/10/06 02:32:00;;;;;;;3.47;1.80;;;11.50;99.90;;;;;;5033379;28;20191;-77
2021/10/06 02:34:25;;;;;;;6.13;1.87;;;11.50;99.90;;;;;;5016723;28;20179;-79
2021/10/06 02:36:52;;;;;;;5.10;2.33;;;11.50;99.90;;;;;;5016615;28;20601;-79
2021/10/06 02:39:18;;;;;;;5.43;2.10;;;11.50;99.90;;;;;;5016830;28;20240;-79
2021/10/06 02:41:44;;;;;;;5.30;2.00;;;11.40;99.90;;;;;;5034430;28;20194;-78
2021/10/06 02:44:09;;;;;;;5.60;2.00;;;11.40;99.90;;;;;;5017084;28;20186;-78
2021/10/06 02:46:35;;;;;;;5.67;2.30;;;11.40;99.90;;;;;;5017842;28;20206;-78
2021/10/06 02:49:01;;;;;;;5.83;1.70;;;11.40;99.90;;;;;;5016412;28;20185;-78
2021/10/06 02:51:26;;;;;;;5.23;1.90;;;11.50;99.90;;;;;;5016001;28;20694;-79
2021/10/06 02:53:52;;;;;;;4.57;2.00;;;11.40;99.90;;;;;;5016392;28;20185;-78
2021/10/06 02:56:17;;;;;;;6.83;1.80;;;11.40;99.90;;;;;;5016870;28;20189;-78
2021/10/06 02:58:43;;;;;;;6.50;2.30;;;11.40;99.90;;;;;;5033354;28;20182;-79
2021/10/06 03:01:08;;;;;;;4.47;1.80;;;11.40;99.90;;;;;;5032881;28;20571;-79
2021/10/06 03:03:34;;;;;;;5.83;1.73;;;11.30;99.90;;;;;;5033056;28;20700;-78
2021/10/06 03:06:00;;;;;;;5.23;1.87;;;11.30;99.90;;;;;;5032620;28;20262;-78
2021/10/06 03:08:25;;;;;;;5.43;1.90;;;11.30;99.90;;;;;;5016381;28;20645;-79
2021/10/06 03:10:51;;;;;;;6.90;1.83;;;11.30;99.90;;;;;;5016588;28;20282;-80
2021/10/06 03:13:17;;;;;;;3.50;1.53;;;11.20;99.90;;;;;;5033165;28;20202;-78
2021/10/06 03:15:44;;;;;;;6.87;1.80;;;11.30;99.90;;;;;;5033393;28;20185;-79
2021/10/06 03:18:09;;;;;;;5.53;1.77;;;11.20;99.90;;;;;;5033801;28;20174;-78
2021/10/06 03:20:36;;;;;;;5.40;1.70;;;11.20;99.90;;;;;;5033586;28;20258;-78
2021/10/06 03:23:08;;;;;;;4.73;1.87;;;11.30;99.90;;;;;;5017238;28;20186;-79
2021/10/06 03:25:33;;;;;;;4.67;1.90;;;11.30;99.90;;;;;;5017256;28;20570;-79
2021/10/06 03:27:59;;;;;;;6.23;1.77;;;11.30;99.90;;;;;;5033521;28;20182;-78
2021/10/06 03:30:24;;;;;;;8.50;1.70;;;11.40;99.90;;;;;;5033245;28;20759;-79
2021/10/06 03:32:50;;;;;;;4.97;1.77;;;11.40;99.90;;;;;;5033407;28;20233;-78
2021/10/06 03:35:18;;;;;;;8.10;1.93;;;11.40;99.90;;;;;;5016591;28;20273;-79
2021/10/06 03:37:45;;;;;;;5.93;2.10;;;11.40;99.90;;;;;;5017424;28;20183;-79
2021/10/06 03:40:11;;;;;;;5.07;1.83;;;11.40;99.90;;;;;;5017961;28;20186;-78
2021/10/06 03:42:37;;;;;;;4.87;1.57;;;11.40;99.90;;;;;;5022370;28;20289;-79
2021/10/06 03:45:07;;;;;;;5.83;1.70;;;11.50;99.90;;;;;;5038418;28;20723;-79
2021/10/06 03:47:33;;;;;;;5.13;1.80;;;11.40;99.90;;;;;;5021271;28;20252;-77
2021/10/06 03:49:58;;;;;;;2.40;1.50;;;11.50;99.90;;;;;;5036832;28;20642;-79
2021/10/06 03:52:24;;;;;;;6.20;1.80;;;11.50;99.90;;;;;;5062227;23;20317;-74
2021/10/06 03:54:49;;;;;;;5.43;1.80;;;11.50;99.90;;;;;;5053334;28;20282;-74
2021/10/06 03:57:15;;;;;;;5.50;1.80;;;11.50;99.90;;;;;;5020305;28;20197;-74
2021/10/06 03:59:41;;;;;;;8.73;2.10;;;11.50;99.90;;;;;;5020179;28;20239;-74
2021/10/06 04:02:06;;;;;;;5.33;1.87;;;11.50;99.90;;;;;;5023864;28;20214;-74
2021/10/06 04:04:32;;;;;;;5.90;1.80;;;11.50;99.90;;;;;;5033348;28;20175;-74
2021/10/06 04:06:57;;;;;;;5.37;1.70;;;11.50;99.90;;;;;;5016867;28;20219;-74
2021/10/06 04:09:23;;;;;;;6.37;1.83;;;11.50;99.90;;;;;;5016644;28;20174;-74
2021/10/06 04:11:48;;;;;;;6.77;1.70;;;11.50;99.90;;;;;;5016749;28;20245;-74
2021/10/06 04:14:14;;;;;;;8.73;2.27;;;11.50;99.90;;;;;;5033008;28;20175;-74
2021/10/06 04:16:39;;;;;;;8.07;1.87;;;11.60;99.90;;;;;;5016633;28;20190;-74
2021/10/06 04:19:05;;;;;;;6.00;1.47;;;11.50;99.90;;;;;;5016427;28;20618;-74
2021/10/06 04:21:30;;;;;;;9.73;1.90;;;11.50;99.90;;;;;;5000193;28;20293;-74
2021/10/06 04:23:56;;;;;;;7.93;2.40;;;11.60;99.90;;;;;;5033038;28;20183;-74
2021/10/06 04:26:22;;;;;;;6.27;1.90;;;11.60;99.90;;;;;;5033047;28;20489;-74
2021/10/06 04:28:47;;;;;;;6.43;2.00;;;11.60;99.90;;;;;;5016093;28;20174;-74
2021/10/06 04:31:13;;;;;;;4.33;1.77;;;11.60;99.90;;;;;;5049294;28;20206;-74
2021/10/06 04:33:38;;;;;;;5.67;1.67;;;11.60;99.90;;;;;;5032727;28;20175;-74
2021/10/06 04:36:04;;;;;;;8.10;2.30;;;11.60;99.90;;;;;;5032755;28;20650;-74
2021/10/06 04:38:29;;;;;;;8.97;2.10;;;11.60;99.90;;;;;;5016091;28;20256;-74
2021/10/06 04:40:55;;;;;;;7.20;2.40;;;11.60;99.90;;;;;;5032698;28;20190;-74
2021/10/06 04:43:20;;;;;;;7.03;2.30;;;11.60;99.90;;;;;;5032391;28;20178;-74
2021/10/06 04:45:46;;;;;;;5.27;1.90;;;11.70;99.90;;;;;;5032079;28;20237;-74
2021/10/06 04:48:12;;;;;;;4.73;1.73;;;11.70;99.90;;;;;;5015875;28;20214;-74
2021/10/06 04:50:37;;;;;;;5.20;1.67;;;11.80;99.90;;;;;;5015791;28;20179;-74
2021/10/06 04:53:03;;;;;;;5.00;1.90;;;11.80;99.90;;;;;;5031583;28;20677;-74
2021/10/06 04:55:29;;;;;;;6.47;1.90;;;11.80;99.90;;;;;;5032477;28;20175;-75
2021/10/06 04:57:57;;;;;;;7.13;2.10;;;11.80;99.90;;;;;;5038971;28;20193;-77
2021/10/06 05:00:22;;;;;;;7.00;1.63;;;11.90;99.90;;;;;;5016922;28;20339;-76
2021/10/06 05:02:48;;;;;;;8.67;2.27;;;11.80;99.90;;;;;;5015312;28;20318;-77
2021/10/06 05:05:13;;;;;;;6.20;1.90;;;11.80;99.90;;;;;;5048804;28;20200;-76
2021/10/06 05:07:39;;;;;;;8.03;1.70;;;11.80;99.90;;;;;;5035505;28;20672;-77
2021/10/06 05:10:05;;;;;;;4.63;1.83;;;11.80;99.90;;;;;;5052177;28;20642;-76
2021/10/06 05:12:31;;;;;;;4.57;1.67;;;11.80;99.90;;;;;;5035362;28;20194;-76
2021/10/06 05:14:56;;;;;;;7.37;1.83;;;11.80;99.90;;;;;;5052007;28;20536;-76
2021/10/06 05:17:22;;;;;;;5.70;1.93;;;11.80;99.90;;;;;;5035358;28;20171;-76
2021/10/06 05:19:47;;;;;;;6.83;1.80;;;11.70;99.90;;;;;;5035313;28;20181;-76
2021/10/06 05:22:13;;;;;;;6.07;1.80;;;11.80;99.90;;;;;;5035287;28;20220;-76
2021/10/06 05:24:38;;;;;;;6.53;2.03;;;11.70;99.90;;;;;;5035143;28;20232;-76
2021/10/06 05:27:04;;;;;;;5.30;1.77;;;11.80;99.90;;;;;;5035218;28;20200;-76
2021/10/06 05:29:29;;;;;;;6.77;1.90;;;11.80;99.90;;;;;;5034904;28;20271;-76
2021/10/06 05:31:55;;;;;;;6.90;1.90;;;11.80;99.90;;;;;;5035066;28;20233;-76
2021/10/06 05:34:20;;;;;;;6.73;1.97;;;11.70;99.90;;;;;;5034968;28;20189;-74
2021/10/06 05:36:46;;;;;;;5.97;1.73;;;11.80;99.90;;;;;;5051556;28;20189;-73
2021/10/06 05:39:12;;;;;;;5.93;1.80;;;11.70;99.90;;;;;;5051382;28;20178;-75
2021/10/06 05:41:37;;;;;;;6.13;1.80;;;11.70;99.90;;;;;;5035074;28;20198;-74
2021/10/06 05:44:03;;;;;;;9.40;2.30;;;11.70;99.90;;;;;;5051457;28;20170;-74
2021/10/06 05:46:29;;;;;;;4.43;1.57;;;11.70;99.90;;;;;;5047965;28;20203;-75
2021/10/06 05:48:55;;;;;;;6.30;1.80;;;11.70;99.90;;;;;;5032596;28;20186;-75
2021/10/06 05:51:20;;;;;;;8.00;2.00;;;11.70;99.90;;;;;;5014456;28;20260;-75
2021/10/06 05:53:46;;;;;;;5.70;1.67;;;11.70;99.90;;;;;;5047415;28;20195;-76
2021/10/06 05:56:11;;;;;;;5.67;1.97;;;11.70;99.90;;;;;;5014554;28;20183;-75
2021/10/06 05:58:38;;;;;;;4.40;1.70;;;11.70;99.90;;;;;;5023172;28;20239;-79
2021/10/06 06:01:03;;;;;;;7.07;1.90;;;11.60;99.90;;;;;;5035964;28;20200;-79
2021/10/06 06:03:29;;;;;;;4.93;1.90;;;11.60;99.90;;;;;;5034508;28;20250;-79
2021/10/06 06:05:54;;;;;;;6.00;1.87;;;11.60;99.90;;;;;;5034702;28;20615;-75
2021/10/06 06:08:20;;;;;;;5.03;1.87;;;11.70;99.90;;;;;;5017273;28;20273;-80
2021/10/06 06:10:46;;;;;;;5.03;2.10;;;11.70;99.90;;;;;;5017840;28;20186;-80
2021/10/06 06:13:11;;;;;;;6.57;1.73;;;11.70;99.90;;;;;;5034250;28;20617;-80
2021/10/06 06:15:37;;;;;;;5.33;1.80;;;11.80;99.90;;;;;;5036147;28;20171;-81
2021/10/06 06:18:02;;;;;;;5.83;2.00;;;11.70;99.90;;;;;;5019972;28;20570;-80
2021/10/06 06:20:28;;;;;;;7.97;1.47;;;11.70;99.90;;;;;;5018370;28;20175;-81
2021/10/06 06:22:54;;;;;;;7.23;1.90;;;11.80;99.90;;;;;;5017517;28;20202;-80
2021/10/06 06:25:20;;;;;;;7.10;1.70;;;11.80;99.90;;;;;;5017571;28;20687;-80
2021/10/06 06:27:46;;;;;;;5.77;1.60;;;11.80;99.90;;;;;;5033012;28;20179;-80
2021/10/06 06:30:12;;;;;;;4.87;1.70;;;11.90;99.90;;;;;;5034855;28;20171;-81
2021/10/06 06:32:38;;;;;;;7.77;1.50;;;11.90;99.90;;;;;;5033580;28;20563;-81
2021/10/06 06:35:05;;;;;;;6.87;1.60;;;12.00;99.90;;;;;;5035766;28;20229;-80
2021/10/06 06:37:31;;;;;;;7.97;1.60;;;12.00;99.90;;;;;;5034857;28;20175;-81
2021/10/06 06:39:56;;;;;;;4.97;1.50;;;12.10;99.90;;;;;;5034656;28;20611;-80
2021/10/06 06:42:22;;;;;;;5.63;1.60;;;12.10;99.90;;;;;;5035633;28;20209;-80
2021/10/06 06:44:47;;;;;;;5.20;1.60;;;12.10;99.90;;;;;;5035633;28;20220;-80
2021/10/06 06:47:13;;;;;;;5.30;1.40;;;12.10;99.90;;;;;;5016422;28;20341;-80
2021/10/06 06:49:38;;;;;;;7.70;1.70;;;12.10;99.90;;;;;;5032351;28;20211;-80
2021/10/06 06:52:04;;;;;;;5.37;1.70;;;12.10;99.90;;;;;;5017019;28;20217;-80
2021/10/06 06:54:30;;;;;;;8.50;1.90;;;12.10;99.90;;;;;;5031444;28;20174;-76
2021/10/06 06:56:55;;;;;;;4.13;1.57;;;12.10;99.90;;;;;;5030826;28;20183;-75
2021/10/06 06:59:21;;;;;;;4.00;1.50;;;12.10;99.90;;;;;;5030151;28;20325;-74
2021/10/06 07:01:46;;;;;;;4.80;1.50;;;12.20;99.90;;;;;;5013797;28;20205;-74
2021/10/06 07:04:13;;;;;;;6.27;1.50;;;12.20;99.90;;;;;;5030480;28;20244;-72
2021/10/06 07:06:39;;;;;;;6.83;1.83;;;12.30;99.90;;;;;;5030470;28;20249;-72
2021/10/06 07:09:05;;;;;;;4.93;1.50;;;12.30;99.90;;;;;;5030297;28;20209;-72
2021/10/06 07:11:31;;;;;;;6.47;1.53;;;12.30;99.90;;;;;;5030496;28;20195;-72
2021/10/06 07:13:56;;;;;;;5.17;1.87;;;12.30;99.90;;;;;;5030208;28;20179;-72
2021/10/06 07:16:22;;;;;;;6.60;1.70;;;12.40;99.90;;;;;;5035154;28;20615;-72
2021/10/06 07:18:47;;;;;;;5.23;1.93;;;12.40;99.90;;;;;;5034171;28;20179;-72
2021/10/06 07:21:13;;;;;;;6.13;1.63;;;12.40;99.90;;;;;;5033852;28;20206;-72
2021/10/06 07:23:39;;;;;;;6.40;1.70;;;12.40;99.90;;;;;;5035636;28;20183;-73
2021/10/06 07:26:04;;;;;;;4.63;1.60;;;12.40;99.90;;;;;;5034310;28;20234;-80
2021/10/06 07:28:30;;;;;;;6.10;1.70;;;12.30;99.90;;;;;;5018341;28;20210;-79
2021/10/06 07:30:55;;;;;;;6.97;2.10;;;12.30;99.90;;;;;;5034949;28;20182;-79
2021/10/06 07:33:21;;;;;;;5.23;1.80;;;12.30;99.90;;;;;;5013479;28;20172;-80
2021/10/06 07:35:46;;;;;;;8.93;1.70;;;12.30;99.90;;;;;;5006621;28;20187;-75
2021/10/06 07:38:12;;;;;;;6.13;1.50;;;12.20;99.90;;;;;;4996447;28;20214;-74
2021/10/06 07:40:38;;;;;;;7.23;1.97;;;12.20;99.90;;;;;;5020565;28;20232;-76
2021/10/06 07:43:03;;;;;;;4.00;1.77;;;12.10;99.90;;;;;;5021857;28;20180;-75
2021/10/06 07:45:29;;;;;;;5.00;1.93;;;12.10;99.90;;;;;;5029968;28;20205;-78
2021/10/06 07:47:54;;;;;;;6.43;1.70;;;12.00;99.90;;;;;;5035656;28;20174;-80
2021/10/06 07:50:20;;;;;;;4.00;1.63;;;12.00;99.90;;;;;;5034038;28;20317;-75
2021/10/06 07:52:46;;;;;;;3.80;1.57;;;11.90;99.90;;;;;;5033221;28;20668;-75
2021/10/06 07:55:11;;;;;;;5.73;1.83;;;11.90;99.90;;;;;;5033279;28;20170;-75
2021/10/06 07:57:37;;;;;;;6.17;1.63;;;12.00;99.90;;;;;;5033227;28;20178;-75
2021/10/06 08:00:06;;;;;;;7.17;1.73;;;12.00;99.90;;;;;;5034592;28;20178;-75
2021/10/06 08:02:32;;;;;;;5.63;1.70;;;12.10;99.90;;;;;;5033369;28;20248;-74
2021/10/06 08:04:57;;;;;;;5.47;1.63;;;12.20;99.90;;;;;;5033059;28;20163;-74
2021/10/06 08:07:23;;;;;;;5.00;1.40;;;12.20;99.90;;;;;;5016872;28;20198;-75
2021/10/06 08:09:48;;;;;;;3.10;1.13;;;12.10;99.90;;;;;;5033092;28;20167;-75
2021/10/06 08:12:14;;;;;;;3.80;1.20;;;12.10;99.90;;;;;;5016411;28;20207;-75
2021/10/06 08:14:40;;;;;;;4.67;1.43;;;12.00;99.90;;;;;;5016671;28;20182;-75
2021/10/06 08:17:05;;;;;;;3.80;1.43;;;12.00;99.90;;;;;;5033175;28;20178;-75
2021/10/06 08:19:31;;;;;;;7.30;1.60;;;11.90;99.90;;;;;;5032717;28;20637;-75
2021/10/06 08:21:56;;;;;;;3.03;1.20;;;11.80;99.90;;;;;;5032860;28;20195;-75
2021/10/06 08:24:22;;;;;;;5.37;1.53;;;11.80;99.90;;;;;;5033005;28;20189;-75
2021/10/06 08:26:48;;;;;;;3.27;1.23;;;11.80;99.90;;;;;;5032759;28;20258;-75
2021/10/06 08:29:14;;;;;;;4.30;1.40;;;11.80;99.90;;;;;;5032936;28;20272;-75
2021/10/06 08:31:39;;;;;;;4.40;1.30;;;11.90;99.90;;;;;;5032762;28;20661;-75
2021/10/06 08:34:05;;;;;;;3.03;1.70;;;12.10;99.90;;;;;;5032899;28;20174;-75
2021/10/06 08:36:31;;;;;;;2.87;1.47;;;12.20;99.90;;;;;;5032806;28;20175;-75
2021/10/06 08:38:57;;;;;;;2.60;1.30;;;12.30;99.90;;;;;;5032576;28;20171;-75
2021/10/06 08:41:23;;;;;;;2.87;1.20;;;12.40;99.90;;;;;;5032402;28;20194;-75
2021/10/06 08:43:50;;;;;;;3.03;1.10;;;12.50;99.90;;;;;;5032425;28;20171;-75
2021/10/06 08:46:15;;;;;;;3.03;1.00;;;12.70;99.90;;;;;;5032499;28;20209;-75
2021/10/06 08:48:41;;;;;;;5.47;1.30;;;12.80;99.90;;;;;;5032360;28;20254;-75
2021/10/06 08:51:06;;;;;;;2.70;1.10;;;12.70;99.90;;;;;;5032331;28;20194;-75
2021/10/06 08:53:32;;;;;;;4.40;1.33;;;12.60;99.90;;;;;;5032236;28;20229;-75
2021/10/06 08:55:57;;;;;;;6.17;1.03;;;12.60;99.90;;;;;;5032308;28;20171;-75
2021/10/06 08:58:23;;;;;;;4.50;1.27;;;12.60;99.90;;;;;;5032198;28;20211;-75
2021/10/06 09:00:58;;;;;;;2.80;1.13;;;12.50;99.90;;;;;;5032389;28;20179;-75
2021/10/06 09:03:28;;;;;;;2.13;1.07;;;12.60;99.90;;;;;;5032237;28;20185;-75
2021/10/06 09:06:07;;;;;;;6.07;1.10;;;12.50;99.90;;;;;;5032025;28;20310;-75
2021/10/06 09:08:35;;;;;;;3.50;1.00;;;12.40;99.90;;;;;;5031841;28;20218;-74
2021/10/06 09:11:01;;;;;;;3.77;1.20;;;12.30;99.90;;;;;;5032046;28;20280;-73
2021/10/06 09:13:30;;;;;;;5.70;1.20;;;12.20;99.90;;;;;;5032002;28;20170;-74
2021/10/06 09:15:57;;;;;;;2.90;1.00;;;12.00;99.90;;;;;;5032028;28;20262;-74
2021/10/06 09:18:24;;;;;;;3.77;1.30;;;11.90;99.90;;;;;;5031900;28;20189;-73
2021/10/06 09:20:51;;;;;;;5.10;1.40;;;11.90;99.90;;;;;;5031496;28;20233;-74
2021/10/06 09:23:18;;;;;;;4.73;1.00;;;11.80;99.90;;;;;;5048364;28;20546;-73
2021/10/06 09:25:48;;;;;;;5.40;1.20;;;11.80;99.90;;;;;;5031694;28;20209;-74
2021/10/06 09:28:24;;;;;;;2.63;1.23;;;11.90;99.90;;;;;;5031656;28;20174;-73
2021/10/06 09:31:07;;;;;;;2.50;0.90;;;11.90;99.90;;;;;;5031612;28;20561;-73
2021/10/06 09:33:57;;;;;;;3.33;1.10;;;12.00;99.90;;;;;;5031269;28;20269;-73
2021/10/06 09:36:25;;;;;;;4.67;1.30;;;12.00;99.90;;;;;;5032433;28;20247;-73
2021/10/06 09:38:51;;;;;;;4.73;1.37;;;12.00;99.90;;;;;;5032153;28;20611;-73
2021/10/06 09:41:47;;;;;;;3.00;1.40;;;11.90;99.90;;;;;;5031126;28;20210;-73
2021/10/06 09:44:20;;;;;;;5.77;1.40;;;11.90;99.90;;;;;;5031113;28;20623;-73
2021/10/06 09:46:53;;;;;;;7.13;1.43;;;11.80;99.90;;;;;;5031441;28;20209;-74
2021/10/06 09:49:26;;;;;;;6.57;1.70;;;11.80;99.90;;;;;;5031178;28;20201;-74
2021/10/06 09:51:52;;;;;;;5.13;1.47;;;11.80;99.90;;;;;;5038243;23;20235;-79
2021/10/06 09:54:18;;;;;;;3.57;1.70;;;11.80;99.90;;;;;;4993254;28;20261;-79
2021/10/06 09:56:46;;;;;;;3.23;1.57;;;11.80;99.90;;;;;;4977014;28;20185;-79
2021/10/06 09:59:13;;;;;;;7.00;1.93;;;11.80;99.90;;;;;;4975962;28;20215;-79
2021/10/06 10:01:40;;;;;;;3.77;1.67;;;11.80;99.90;;;;;;4992663;28;20227;-79
2021/10/06 10:04:06;;;;;;;4.53;1.70;;;11.80;99.90;;;;;;4960442;28;20187;-79
2021/10/06 10:06:32;;;;;;;4.13;1.40;;;11.80;99.90;;;;;;4960484;28;20632;-79
2021/10/06 10:08:59;;;;;;;3.70;1.80;;;11.80;99.90;;;;;;4959445;28;20181;-79
2021/10/06 10:11:25;;;;;;;6.50;1.67;;;11.80;99.90;;;;;;4960088;28;20200;-79
2021/10/06 10:13:50;;;;;;;4.50;1.70;;;11.80;99.90;;;;;;4960236;28;20177;-79
2021/10/06 10:16:16;;;;;;;4.27;1.70;;;11.80;99.90;;;;;;4960924;28;20605;-79
2021/10/06 10:18:42;;;;;;;4.07;1.90;;;11.80;99.90;;;;;;4960006;28;20606;-79
2021/10/06 10:21:07;;;;;;;4.93;1.90;;;11.90;99.90;;;;;;4960311;28;20269;-79
2021/10/06 10:23:33;;;;;;;3.90;1.77;;;12.00;99.90;;;;;;4960229;28;20184;-79
2021/10/06 10:25:59;;;;;;;3.83;1.93;;;12.00;99.90;;;;;;4960794;28;20215;-79
2021/10/06 10:28:25;;;;;;;5.80;1.90;;;12.00;99.90;;;;;;4957829;28;20184;-78
2021/10/06 10:30:54;;;;;;;4.60;1.90;;;12.00;99.90;;;;;;4959673;28;20754;-79
2021/10/06 10:33:42;;;;;;;5.33;1.80;;;11.90;99.90;;;;;;4976638;28;20180;-79
2021/10/06 10:36:34;;;;;;;6.40;1.90;;;12.00;99.90;;;;;;4975330;28;20189;-79
2021/10/06 10:39:26;;;;;;;5.83;2.33;;;12.10;99.90;;;;;;4975003;28;20180;-79
2021/10/06 10:41:56;;;;;;;4.43;1.73;;;12.10;99.90;;;;;;4962538;28;20235;-79
2021/10/06 10:44:26;;;;;;;4.03;1.73;;;12.00;99.90;;;;;;4959709;28;20553;-79
2021/10/06 10:47:18;;;;;;;5.10;2.23;;;12.00;99.90;;;;;;4959076;28;20216;-79
2021/10/06 10:49:48;;;;;;;4.60;1.80;;;12.00;99.90;;;;;;4989355;28;20189;-79
2021/10/06 10:52:15;;;;;;;3.23;1.90;;;11.90;99.90;;;;;;4962647;28;20219;-78
2021/10/06 10:54:44;;;;;;;3.97;1.80;;;11.90;99.90;;;;;;4979405;28;20230;-79
2021/10/06 10:57:25;;;;;;;4.70;2.00;;;11.80;99.90;;;;;;4963288;28;20184;-79
2021/10/06 10:59:52;;;;;;;3.20;1.90;;;11.80;99.90;;;;;;4980210;28;20279;-86
2021/10/06 11:02:22;;;;;;;3.43;2.00;;;11.80;99.90;;;;;;4964893;28;20208;-84
2021/10/06 11:05:15;;;;;;;4.07;1.90;;;11.80;99.90;;;;;;4980859;28;20189;-85
2021/10/06 11:07:49;;;;;;;4.90;2.03;;;11.80;99.90;;;;;;4978263;28;20301;-84
2021/10/06 11:10:18;;;;;;;3.23;2.10;;;11.80;99.90;;;;;;4979225;28;20157;-84
2021/10/06 11:12:56;;;;;;;2.70;1.70;;;11.70;99.90;;;;;;4963545;28;20262;-83
2021/10/06 11:15:25;;;;;;;4.40;2.10;;;11.60;99.90;;;;;;4979762;28;20239;-82
2021/10/06 11:18:06;;;;;;;4.93;2.20;;;11.60;99.90;;;;;;4964756;28;20184;-83
2021/10/06 11:20:46;;;;;;;2.53;1.87;;;11.60;99.90;;;;;;4980957;28;20256;-83
2021/10/06 11:23:30;;;;;;;3.13;1.90;;;11.60;99.90;;;;;;4978873;28;20197;-83
2021/10/06 11:26:06;;;;;;;4.17;1.90;;;11.50;99.90;;;;;;4978625;28;20351;-84
2021/10/06 11:28:35;;;;;;;2.93;1.90;;;11.50;99.90;;;;;;4979074;28;20164;-83
2021/10/06 11:31:00;;;;;;;3.93;1.93;;;11.50;99.90;;;;;;4962857;28;20184;-81
2021/10/06 11:33:26;;;;;;;5.10;2.23;;;11.50;99.90;;;;;;4979285;28;20185;-83
2021/10/06 11:35:52;;;;;;;2.90;2.20;;;11.50;99.90;;;;;;4962169;28;20192;-83
2021/10/06 11:38:18;;;;;;;2.60;1.93;;;11.50;99.90;;;;;;4978094;28;20720;-82
2021/10/06 11:40:44;;;;;;;4.03;2.37;;;11.50;99.90;;;;;;4962209;28;20213;-83
2021/10/06 11:43:09;;;;;;;3.13;2.20;;;11.50;99.90;;;;;;4962223;28;20208;-83
2021/10/06 11:45:35;;;;;;;3.00;2.17;;;11.50;99.90;;;;;;4963153;28;20212;-82
2021/10/06 11:48:10;;;;;;;2.60;2.17;;;11.50;99.90;;;;;;4969681;28;20222;-76
2021/10/06 11:50:36;;;;;;;3.33;2.23;;;11.50;99.90;;;;;;4994492;28;20171;-77
2021/10/06 11:53:02;;;;;;;3.00;2.03;;;11.50;99.90;;;;;;4976152;28;20220;-80
2021/10/06 11:55:27;;;;;;;2.90;2.30;;;11.60;99.90;;;;;;4976567;28;20519;-79
2021/10/06 11:57:53;;;;;;;4.07;2.40;;;11.70;99.90;;;;;;4976886;28;20181;-79
2021/10/06 12:00:20;;;;;;;3.50;2.30;;;11.70;99.90;;;;;;4973449;28;20189;-76
2021/10/06 12:02:46;;;;;;;3.83;2.00;;;11.70;99.90;;;;;;4974627;28;20212;-76
2021/10/06 12:05:11;;;;;;;2.10;1.83;;;11.70;99.90;;;;;;4958368;28;20184;-77
2021/10/06 12:07:37;;;;;;;2.50;2.10;;;11.70;99.90;;;;;;4974653;28;20180;-76
2021/10/06 12:10:09;;;;;;;3.73;2.10;;;11.70;99.90;;;;;;4974598;28;20180;-77
2021/10/06 12:12:38;;;;;;;3.03;2.37;;;11.80;99.90;;;;;;4958364;28;20197;-77
2021/10/06 12:15:14;;;;;;;3.63;2.10;;;11.90;99.90;;;;;;4973469;28;20191;-77
2021/10/06 12:17:39;;;;;;;4.70;2.33;;;12.00;99.90;;;;;;4975667;28;20238;-75
2021/10/06 12:20:14;;;;;;;4.30;2.47;;;12.00;99.90;;;;;;4975350;28;20741;-77
2021/10/06 12:22:42;;;;;;;2.60;2.40;;;12.10;99.90;;;;;;4974305;28;20192;-76
2021/10/06 12:25:15;;;;;;;2.83;2.27;;;12.20;99.90;;;;;;4974227;28;20248;-77
2021/10/06 12:27:42;;;;;;;2.63;2.20;;;12.20;99.90;;;;;;4974325;28;20173;-77
2021/10/06 12:30:10;;;;;;;3.67;2.33;;;12.30;99.90;;;;;;4974074;28;20185;-76
2021/10/06 12:32:36;;;;;;;3.57;2.50;;;12.30;99.90;;;;;;4974103;28;20204;-77
2021/10/06 12:35:06;;;;;;;3.50;2.70;;;12.30;99.90;;;;;;4974115;28;20183;-77
2021/10/06 12:37:32;;;;;;;3.83;2.60;;;12.40;99.90;;;;;;4958033;28;20189;-77
2021/10/06 12:39:57;;;;;;;3.80;2.70;;;12.40;99.90;;;;;;4974013;28;20789;-76
2021/10/06 12:42:23;;;;;;;3.00;2.70;;;12.40;99.90;;;;;;4973964;28;20196;-77
2021/10/06 12:44:50;;;;;;;4.07;2.80;;;12.40;99.90;;;;;;4975166;28;20544;-77
2021/10/06 12:47:17;;;;;;;3.47;3.03;;;12.30;99.90;;;;;;4957811;28;20232;-76